sensor_id;sensor_type;location;lat;lon;timestamp;temperature;humidity
21498;DHT22;10910;50.932;0.246;2024-03-08T00:00:28;5.00;100.00
21498;DHT22;10910;50.932;0.246;2024-03-08T00:02:54;5.00;100.00
21498;DHT22;10910;50.932;0.246;2024-03-08T00:05:20;5.00;100.00
21498;DHT22;10910;50.932;0.246;2024-03-08T00:07:45;4.90;100.00
21498;DHT22;10910;50.932;0.246;2024-03-08T00:10:12;4.90;100.00
21498;DHT22;10910;50.932;0.246;2024-03-08T00:12:42;4.90;100.00
21498;DHT22;10910;50.932;0.246;2024-03-08T00:15:13;4.90;100.00
21498;DHT22;10910;50.932;0.246;2024-03-08T00:17:44;4.80;100.00
21498;DHT22;10910;50.932;0.246;2024-03-08T00:20:10;4.80;100.00
21498;DHT22;10910;50.932;0.246;2024-03-08T00:22:39;4.80;100.00
21498;DHT22;10910;50.932;0.246;2024-03-08T00:25:06;4.80;100.00
21498;DHT22;10910;50.932;0.246;2024-03-08T00:27:34;4.80;100.00
21498;DHT22;10910;50.932;0.246;2024-03-08T00:30:01;4.70;100.00
21498;DHT22;10910;50.932;0.246;2024-03-08T00:32:27;4.70;100.00
21498;DHT22;10910;50.932;0.246;2024-03-08T00:34:57;4.70;100.00
21498;DHT22;10910;50.932;0.246;2024-03-08T00:37:23;4.80;100.00
21498;DHT22;10910;50.932;0.246;2024-03-08T00:39:50;4.70;100.00
21498;DHT22;10910;50.932;0.246;2024-03-08T00:42:16;4.70;100.00
21498;DHT22;10910;50.932;0.246;2024-03-08T00:44:42;4.70;100.00
21498;DHT22;10910;50.932;0.246;2024-03-08T00:47:08;4.70;100.00
21498;DHT22;10910;50.932;0.246;2024-03-08T00:49:33;4.70;100.00
21498;DHT22;10910;50.932;0.246;2024-03-08T00:51:59;4.80;100.00
21498;DHT22;10910;50.932;0.246;2024-03-08T00:54:25;4.70;100.00
21498;DHT22;10910;50.932;0.246;2024-03-08T00:56:50;4.70;100.00
21498;DHT22;10910;50.932;0.246;2024-03-08T00:59:16;4.70;100.00
21498;DHT22;10910;50.932;0.246;2024-03-08T01:01:42;4.70;100.00
21498;DHT22;10910;50.932;0.246;2024-03-08T01:04:09;4.60;100.00
21498;DHT22;10910;50.932;0.246;2024-03-08T01:06:35;4.60;100.00
21498;DHT22;10910;50.932;0.246;2024-03-08T01:09:00;4.60;100.00
21498;DHT22;10910;50.932;0.246;2024-03-08T01:11:26;4.60;100.00
21498;DHT22;10910;50.932;0.246;2024-03-08T01:13:53;4.70;100.00
21498;DHT22;10910;50.932;0.246;2024-03-08T01:16:19;4.70;100.00
21498;DHT22;10910;50.932;0.246;2024-03-08T01:18:47;4.60;100.00
21498;DHT22;10910;50.932;0.246;2024-03-08T01:21:12;4.60;100.00
21498;DHT22;10910;50.932;0.246;2024-03-08T01:23:38;4.60;100.00
21498;DHT22;10910;50.932;0.246;2024-03-08T01:26:04;4.60;100.00
21498;DHT22;10910;50.932;0.246;2024-03-08T01:28:30;4.60;100.00
21498;DHT22;10910;50.932;0.246;2024-03-08T01:30:56;4.60;100.00
21498;DHT22;10910;50.932;0.246;2024-03-08T01:33:25;4.70;100.00
21498;DHT22;10910;50.932;0.246;2024-03-08T01:35:52;4.60;100.00
21498;DHT22;10910;50.932;0.246;2024-03-08T01:38:19;4.70;100.00
21498;DHT22;10910;50.932;0.246;2024-03-08T01:40:46;4.70;100.00
21498;DHT22;10910;50.932;0.246;2024-03-08T01:43:22;4.70;100.00
21498;DHT22;10910;50.932;0.246;2024-03-08T01:45:50;4.70;100.00
21498;DHT22;10910;50.932;0.246;2024-03-08T01:48:17;4.60;100.00
21498;DHT22;10910;50.932;0.246;2024-03-08T01:50:43;4.70;100.00
21498;DHT22;10910;50.932;0.246;2024-03-08T01:53:10;4.60;100.00
21498;DHT22;10910;50.932;0.246;2024-03-08T01:55:37;4.60;100.00
21498;DHT22;10910;50.932;0.246;2024-03-08T01:58:04;4.50;100.00
21498;DHT22;10910;50.932;0.246;2024-03-08T02:00:31;4.60;100.00
21498;DHT22;10910;50.932;0.246;2024-03-08T02:02:58;4.60;100.00
21498;DHT22;10910;50.932;0.246;2024-03-08T02:05:24;4.50;100.00
21498;DHT22;10910;50.932;0.246;2024-03-08T02:07:50;4.50;100.00
21498;DHT22;10910;50.932;0.246;2024-03-08T02:10:17;4.50;100.00
21498;DHT22;10910;50.932;0.246;2024-03-08T02:12:42;4.50;100.00
21498;DHT22;10910;50.932;0.246;2024-03-08T02:15:09;4.50;100.00
21498;DHT22;10910;50.932;0.246;2024-03-08T02:17:36;4.40;100.00
21498;DHT22;10910;50.932;0.246;2024-03-08T02:20:01;4.40;100.00
21498;DHT22;10910;50.932;0.246;2024-03-08T02:22:30;4.50;100.00
21498;DHT22;10910;50.932;0.246;2024-03-08T02:24:58;4.50;100.00
21498;DHT22;10910;50.932;0.246;2024-03-08T02:27:27;4.40;100.00
21498;DHT22;10910;50.932;0.246;2024-03-08T02:29:55;4.40;100.00
21498;DHT22;10910;50.932;0.246;2024-03-08T02:32:22;4.40;100.00
21498;DHT22;10910;50.932;0.246;2024-03-08T02:34:48;4.40;100.00
21498;DHT22;10910;50.932;0.246;2024-03-08T02:37:14;4.30;100.00
21498;DHT22;10910;50.932;0.246;2024-03-08T02:39:39;4.30;100.00
21498;DHT22;10910;50.932;0.246;2024-03-08T02:42:05;4.30;100.00
21498;DHT22;10910;50.932;0.246;2024-03-08T02:44:31;4.30;100.00
21498;DHT22;10910;50.932;0.246;2024-03-08T02:46:56;4.30;100.00
21498;DHT22;10910;50.932;0.246;2024-03-08T02:49:22;4.20;100.00
21498;DHT22;10910;50.932;0.246;2024-03-08T02:51:48;4.20;100.00
21498;DHT22;10910;50.932;0.246;2024-03-08T02:54:13;4.30;100.00
21498;DHT22;10910;50.932;0.246;2024-03-08T02:56:39;4.20;100.00
21498;DHT22;10910;50.932;0.246;2024-03-08T02:59:04;4.20;100.00
21498;DHT22;10910;50.932;0.246;2024-03-08T03:01:30;4.20;100.00
21498;DHT22;10910;50.932;0.246;2024-03-08T03:03:57;4.20;100.00
21498;DHT22;10910;50.932;0.246;2024-03-08T03:06:23;4.30;100.00
21498;DHT22;10910;50.932;0.246;2024-03-08T03:08:49;4.20;100.00
21498;DHT22;10910;50.932;0.246;2024-03-08T03:11:16;4.20;100.00
21498;DHT22;10910;50.932;0.246;2024-03-08T03:13:42;4.20;100.00
21498;DHT22;10910;50.932;0.246;2024-03-08T03:16:19;4.20;100.00
21498;DHT22;10910;50.932;0.246;2024-03-08T03:18:46;4.20;100.00
21498;DHT22;10910;50.932;0.246;2024-03-08T03:21:12;4.10;100.00
21498;DHT22;10910;50.932;0.246;2024-03-08T03:23:39;4.10;100.00
21498;DHT22;10910;50.932;0.246;2024-03-08T03:26:08;4.10;100.00
21498;DHT22;10910;50.932;0.246;2024-03-08T03:28:34;4.20;100.00
21498;DHT22;10910;50.932;0.246;2024-03-08T03:31:00;4.10;100.00
21498;DHT22;10910;50.932;0.246;2024-03-08T03:33:27;4.20;100.00
21498;DHT22;10910;50.932;0.246;2024-03-08T03:35:52;4.10;100.00
21498;DHT22;10910;50.932;0.246;2024-03-08T03:38:18;4.10;100.00
21498;DHT22;10910;50.932;0.246;2024-03-08T03:40:45;4.10;100.00
21498;DHT22;10910;50.932;0.246;2024-03-08T03:43:11;4.10;100.00
21498;DHT22;10910;50.932;0.246;2024-03-08T03:45:37;4.10;100.00
21498;DHT22;10910;50.932;0.246;2024-03-08T03:48:05;4.10;100.00
21498;DHT22;10910;50.932;0.246;2024-03-08T03:50:37;4.10;100.00
21498;DHT22;10910;50.932;0.246;2024-03-08T03:53:04;4.10;100.00
21498;DHT22;10910;50.932;0.246;2024-03-08T03:55:33;4.00;100.00
21498;DHT22;10910;50.932;0.246;2024-03-08T03:57:59;3.90;100.00
21498;DHT22;10910;50.932;0.246;2024-03-08T04:00:27;3.90;100.00
21498;DHT22;10910;50.932;0.246;2024-03-08T04:02:53;3.90;100.00
21498;DHT22;10910;50.932;0.246;2024-03-08T04:05:18;3.90;100.00
21498;DHT22;10910;50.932;0.246;2024-03-08T04:07:44;3.90;100.00
21498;DHT22;10910;50.932;0.246;2024-03-08T04:10:11;3.90;100.00
21498;DHT22;10910;50.932;0.246;2024-03-08T04:12:37;3.90;100.00
21498;DHT22;10910;50.932;0.246;2024-03-08T04:15:04;3.90;100.00
21498;DHT22;10910;50.932;0.246;2024-03-08T04:17:33;3.90;100.00
21498;DHT22;10910;50.932;0.246;2024-03-08T04:20:05;3.90;100.00
21498;DHT22;10910;50.932;0.246;2024-03-08T04:22:38;3.90;100.00
21498;DHT22;10910;50.932;0.246;2024-03-08T04:25:05;3.90;100.00
21498;DHT22;10910;50.932;0.246;2024-03-08T04:27:32;3.80;100.00
21498;DHT22;10910;50.932;0.246;2024-03-08T04:29:58;3.90;100.00
21498;DHT22;10910;50.932;0.246;2024-03-08T04:32:24;3.90;100.00
21498;DHT22;10910;50.932;0.246;2024-03-08T04:34:50;3.80;100.00
21498;DHT22;10910;50.932;0.246;2024-03-08T04:37:16;3.80;100.00
21498;DHT22;10910;50.932;0.246;2024-03-08T04:39:47;3.80;100.00
21498;DHT22;10910;50.932;0.246;2024-03-08T04:42:13;3.80;100.00
21498;DHT22;10910;50.932;0.246;2024-03-08T04:44:39;3.80;100.00
21498;DHT22;10910;50.932;0.246;2024-03-08T04:47:05;3.80;100.00
21498;DHT22;10910;50.932;0.246;2024-03-08T04:49:33;3.80;100.00
21498;DHT22;10910;50.932;0.246;2024-03-08T04:52:02;3.80;100.00
21498;DHT22;10910;50.932;0.246;2024-03-08T04:54:29;3.80;100.00
21498;DHT22;10910;50.932;0.246;2024-03-08T04:56:54;3.80;100.00
21498;DHT22;10910;50.932;0.246;2024-03-08T04:59:20;3.80;100.00
21498;DHT22;10910;50.932;0.246;2024-03-08T05:01:46;3.70;100.00
21498;DHT22;10910;50.932;0.246;2024-03-08T05:04:13;3.70;100.00
21498;DHT22;10910;50.932;0.246;2024-03-08T05:06:39;3.80;100.00
21498;DHT22;10910;50.932;0.246;2024-03-08T05:09:04;3.70;100.00
21498;DHT22;10910;50.932;0.246;2024-03-08T05:11:49;3.70;100.00
21498;DHT22;10910;50.932;0.246;2024-03-08T05:14:15;3.70;100.00
21498;DHT22;10910;50.932;0.246;2024-03-08T05:16:48;3.70;100.00
21498;DHT22;10910;50.932;0.246;2024-03-08T05:19:18;3.60;100.00
21498;DHT22;10910;50.932;0.246;2024-03-08T05:21:47;3.60;100.00
21498;DHT22;10910;50.932;0.246;2024-03-08T05:24:13;3.60;100.00
21498;DHT22;10910;50.932;0.246;2024-03-08T05:26:42;3.60;100.00
21498;DHT22;10910;50.932;0.246;2024-03-08T05:29:08;3.60;100.00
21498;DHT22;10910;50.932;0.246;2024-03-08T05:34:08;3.60;100.00
21498;DHT22;10910;50.932;0.246;2024-03-08T05:36:35;3.60;100.00
21498;DHT22;10910;50.932;0.246;2024-03-08T05:39:01;3.60;100.00
21498;DHT22;10910;50.932;0.246;2024-03-08T05:41:26;3.60;100.00
21498;DHT22;10910;50.932;0.246;2024-03-08T05:43:52;3.60;100.00
21498;DHT22;10910;50.932;0.246;2024-03-08T05:46:19;3.50;100.00
21498;DHT22;10910;50.932;0.246;2024-03-08T05:48:44;3.50;100.00
21498;DHT22;10910;50.932;0.246;2024-03-08T05:51:10;3.50;100.00
21498;DHT22;10910;50.932;0.246;2024-03-08T05:53:39;3.50;100.00
21498;DHT22;10910;50.932;0.246;2024-03-08T05:56:05;3.50;100.00
21498;DHT22;10910;50.932;0.246;2024-03-08T05:58:31;3.40;100.00
21498;DHT22;10910;50.932;0.246;2024-03-08T06:00:57;3.40;100.00
21498;DHT22;10910;50.932;0.246;2024-03-08T06:03:22;3.40;100.00
21498;DHT22;10910;50.932;0.246;2024-03-08T06:05:49;3.40;100.00
21498;DHT22;10910;50.932;0.246;2024-03-08T06:08:15;3.40;100.00
21498;DHT22;10910;50.932;0.246;2024-03-08T06:10:41;3.40;100.00
21498;DHT22;10910;50.932;0.246;2024-03-08T06:13:06;3.40;100.00
21498;DHT22;10910;50.932;0.246;2024-03-08T06:15:32;3.40;100.00
21498;DHT22;10910;50.932;0.246;2024-03-08T06:17:58;3.30;100.00
21498;DHT22;10910;50.932;0.246;2024-03-08T06:20:23;3.40;100.00
21498;DHT22;10910;50.932;0.246;2024-03-08T06:22:51;3.40;100.00
21498;DHT22;10910;50.932;0.246;2024-03-08T06:25:18;3.40;100.00
21498;DHT22;10910;50.932;0.246;2024-03-08T06:27:44;3.50;100.00
21498;DHT22;10910;50.932;0.246;2024-03-08T06:30:11;3.50;100.00
21498;DHT22;10910;50.932;0.246;2024-03-08T06:32:37;3.50;100.00
21498;DHT22;10910;50.932;0.246;2024-03-08T06:35:04;3.50;100.00
21498;DHT22;10910;50.932;0.246;2024-03-08T06:37:33;3.40;100.00
21498;DHT22;10910;50.932;0.246;2024-03-08T06:40:00;3.40;100.00
21498;DHT22;10910;50.932;0.246;2024-03-08T06:42:27;3.40;100.00
21498;DHT22;10910;50.932;0.246;2024-03-08T06:44:53;3.40;100.00
21498;DHT22;10910;50.932;0.246;2024-03-08T06:47:20;3.40;100.00
21498;DHT22;10910;50.932;0.246;2024-03-08T06:49:46;3.40;100.00
21498;DHT22;10910;50.932;0.246;2024-03-08T06:52:12;3.40;100.00
21498;DHT22;10910;50.932;0.246;2024-03-08T06:54:38;3.40;100.00
21498;DHT22;10910;50.932;0.246;2024-03-08T06:57:04;3.50;100.00
21498;DHT22;10910;50.932;0.246;2024-03-08T06:59:31;3.40;100.00
21498;DHT22;10910;50.932;0.246;2024-03-08T07:01:56;3.40;100.00
21498;DHT22;10910;50.932;0.246;2024-03-08T07:04:22;3.40;100.00
21498;DHT22;10910;50.932;0.246;2024-03-08T07:06:52;3.50;100.00
21498;DHT22;10910;50.932;0.246;2024-03-08T07:09:17;3.50;100.00
21498;DHT22;10910;50.932;0.246;2024-03-08T07:11:43;3.50;100.00
21498;DHT22;10910;50.932;0.246;2024-03-08T07:14:09;3.50;100.00
21498;DHT22;10910;50.932;0.246;2024-03-08T07:16:34;3.50;100.00
21498;DHT22;10910;50.932;0.246;2024-03-08T07:19:01;3.50;100.00
21498;DHT22;10910;50.932;0.246;2024-03-08T07:21:27;3.40;100.00
21498;DHT22;10910;50.932;0.246;2024-03-08T07:23:53;3.50;100.00
21498;DHT22;10910;50.932;0.246;2024-03-08T07:26:24;3.50;100.00
21498;DHT22;10910;50.932;0.246;2024-03-08T07:28:50;3.50;100.00
21498;DHT22;10910;50.932;0.246;2024-03-08T07:31:15;3.60;100.00
21498;DHT22;10910;50.932;0.246;2024-03-08T07:34:00;3.50;100.00
21498;DHT22;10910;50.932;0.246;2024-03-08T07:36:25;3.60;100.00
21498;DHT22;10910;50.932;0.246;2024-03-08T07:38:51;3.60;100.00
21498;DHT22;10910;50.932;0.246;2024-03-08T07:41:17;3.60;100.00
21498;DHT22;10910;50.932;0.246;2024-03-08T07:43:42;3.70;100.00
21498;DHT22;10910;50.932;0.246;2024-03-08T07:49:40;3.70;100.00
21498;DHT22;10910;50.932;0.246;2024-03-08T07:52:06;3.70;100.00
21498;DHT22;10910;50.932;0.246;2024-03-08T07:54:33;3.80;100.00
21498;DHT22;10910;50.932;0.246;2024-03-08T07:57:00;3.80;100.00
21498;DHT22;10910;50.932;0.246;2024-03-08T07:59:28;3.90;100.00
21498;DHT22;10910;50.932;0.246;2024-03-08T08:01:54;4.00;100.00
21498;DHT22;10910;50.932;0.246;2024-03-08T08:04:20;4.00;100.00
21498;DHT22;10910;50.932;0.246;2024-03-08T08:06:50;4.10;100.00
21498;DHT22;10910;50.932;0.246;2024-03-08T08:09:16;4.20;100.00
21498;DHT22;10910;50.932;0.246;2024-03-08T08:11:56;4.20;100.00
21498;DHT22;10910;50.932;0.246;2024-03-08T08:14:22;4.20;100.00
21498;DHT22;10910;50.932;0.246;2024-03-08T08:16:47;4.30;100.00
21498;DHT22;10910;50.932;0.246;2024-03-08T08:19:15;4.40;100.00
21498;DHT22;10910;50.932;0.246;2024-03-08T08:21:41;4.30;100.00
21498;DHT22;10910;50.932;0.246;2024-03-08T08:24:07;4.40;100.00
21498;DHT22;10910;50.932;0.246;2024-03-08T08:26:32;4.50;100.00
21498;DHT22;10910;50.932;0.246;2024-03-08T08:28:59;4.60;100.00
21498;DHT22;10910;50.932;0.246;2024-03-08T08:31:25;4.60;100.00
21498;DHT22;10910;50.932;0.246;2024-03-08T08:33:51;4.60;100.00
21498;DHT22;10910;50.932;0.246;2024-03-08T08:36:26;4.70;100.00
21498;DHT22;10910;50.932;0.246;2024-03-08T08:38:52;4.70;100.00
21498;DHT22;10910;50.932;0.246;2024-03-08T08:41:21;4.80;100.00
21498;DHT22;10910;50.932;0.246;2024-03-08T08:43:47;4.80;100.00
21498;DHT22;10910;50.932;0.246;2024-03-08T08:46:17;4.90;100.00
21498;DHT22;10910;50.932;0.246;2024-03-08T08:48:43;4.90;100.00
21498;DHT22;10910;50.932;0.246;2024-03-08T08:51:13;4.90;100.00
21498;DHT22;10910;50.932;0.246;2024-03-08T08:53:41;5.00;100.00
21498;DHT22;10910;50.932;0.246;2024-03-08T08:56:08;5.00;100.00
21498;DHT22;10910;50.932;0.246;2024-03-08T08:58:34;5.20;99.50
21498;DHT22;10910;50.932;0.246;2024-03-08T09:01:00;5.20;99.80
21498;DHT22;10910;50.932;0.246;2024-03-08T09:03:27;5.10;100.00
21498;DHT22;10910;50.932;0.246;2024-03-08T09:05:53;5.10;100.00
21498;DHT22;10910;50.932;0.246;2024-03-08T09:08:19;5.30;99.70
21498;DHT22;10910;50.932;0.246;2024-03-08T09:10:45;5.30;99.60
21498;DHT22;10910;50.932;0.246;2024-03-08T09:13:12;5.40;99.60
21498;DHT22;10910;50.932;0.246;2024-03-08T09:15:38;5.40;99.20
21498;DHT22;10910;50.932;0.246;2024-03-08T09:18:06;5.40;99.40
21498;DHT22;10910;50.932;0.246;2024-03-08T09:20:32;5.50;99.40
21498;DHT22;10910;50.932;0.246;2024-03-08T09:22:57;5.60;98.20
21498;DHT22;10910;50.932;0.246;2024-03-08T09:25:23;5.60;98.60
21498;DHT22;10910;50.932;0.246;2024-03-08T09:27:49;5.60;99.20
21498;DHT22;10910;50.932;0.246;2024-03-08T09:30:15;5.70;98.80
21498;DHT22;10910;50.932;0.246;2024-03-08T09:32:41;5.70;97.90
21498;DHT22;10910;50.932;0.246;2024-03-08T09:35:09;5.80;97.10
21498;DHT22;10910;50.932;0.246;2024-03-08T09:37:35;5.80;97.50
21498;DHT22;10910;50.932;0.246;2024-03-08T09:40:00;5.90;96.90
21498;DHT22;10910;50.932;0.246;2024-03-08T09:42:30;6.00;97.40
21498;DHT22;10910;50.932;0.246;2024-03-08T09:44:58;6.10;96.20
21498;DHT22;10910;50.932;0.246;2024-03-08T09:47:25;6.10;96.00
21498;DHT22;10910;50.932;0.246;2024-03-08T09:49:54;6.10;95.80
21498;DHT22;10910;50.932;0.246;2024-03-08T09:52:20;6.20;95.50
21498;DHT22;10910;50.932;0.246;2024-03-08T09:54:46;6.20;95.30
21498;DHT22;10910;50.932;0.246;2024-03-08T09:57:11;6.30;94.80
21498;DHT22;10910;50.932;0.246;2024-03-08T09:59:37;6.40;95.00
21498;DHT22;10910;50.932;0.246;2024-03-08T10:02:03;6.50;94.80
21498;DHT22;10910;50.932;0.246;2024-03-08T10:04:30;6.50;95.00
21498;DHT22;10910;50.932;0.246;2024-03-08T10:06:59;6.70;94.90
21498;DHT22;10910;50.932;0.246;2024-03-08T10:09:26;6.70;93.60
21498;DHT22;10910;50.932;0.246;2024-03-08T10:11:56;6.90;93.30
21498;DHT22;10910;50.932;0.246;2024-03-08T10:14:24;6.90;92.80
21498;DHT22;10910;50.932;0.246;2024-03-08T10:16:50;6.90;92.10
21498;DHT22;10910;50.932;0.246;2024-03-08T10:19:17;6.90;92.50
21498;DHT22;10910;50.932;0.246;2024-03-08T10:21:53;7.10;93.60
21498;DHT22;10910;50.932;0.246;2024-03-08T10:24:25;7.20;92.60
21498;DHT22;10910;50.932;0.246;2024-03-08T10:27:00;7.20;92.80
21498;DHT22;10910;50.932;0.246;2024-03-08T10:29:33;7.30;92.10
21498;DHT22;10910;50.932;0.246;2024-03-08T10:31:58;7.40;91.20
21498;DHT22;10910;50.932;0.246;2024-03-08T10:34:25;7.50;90.70
21498;DHT22;10910;50.932;0.246;2024-03-08T10:36:51;7.50;89.60
21498;DHT22;10910;50.932;0.246;2024-03-08T10:39:21;7.50;88.80
21498;DHT22;10910;50.932;0.246;2024-03-08T10:41:53;7.50;88.80
21498;DHT22;10910;50.932;0.246;2024-03-08T10:50:14;7.60;89.60
21498;DHT22;10910;50.932;0.246;2024-03-08T10:52:50;7.80;88.10
21498;DHT22;10910;50.932;0.246;2024-03-08T10:55:20;7.90;88.00
21498;DHT22;10910;50.932;0.246;2024-03-08T10:57:46;8.00;88.10
21498;DHT22;10910;50.932;0.246;2024-03-08T11:00:15;8.10;87.90
21498;DHT22;10910;50.932;0.246;2024-03-08T11:02:45;8.20;87.30
21498;DHT22;10910;50.932;0.246;2024-03-08T11:05:11;8.20;87.30
21498;DHT22;10910;50.932;0.246;2024-03-08T11:07:44;8.30;87.00
21498;DHT22;10910;50.932;0.246;2024-03-08T11:10:19;8.30;85.90
21498;DHT22;10910;50.932;0.246;2024-03-08T11:12:45;8.30;85.20
21498;DHT22;10910;50.932;0.246;2024-03-08T11:15:14;8.30;85.20
21498;DHT22;10910;50.932;0.246;2024-03-08T11:17:44;8.40;85.50
21498;DHT22;10910;50.932;0.246;2024-03-08T11:20:12;8.40;85.60
21498;DHT22;10910;50.932;0.246;2024-03-08T11:22:48;8.60;85.00
21498;DHT22;10910;50.932;0.246;2024-03-08T11:28:20;8.70;83.00
21498;DHT22;10910;50.932;0.246;2024-03-08T11:30:47;8.80;83.10
21498;DHT22;10910;50.932;0.246;2024-03-08T11:33:35;8.80;83.00
21498;DHT22;10910;50.932;0.246;2024-03-08T11:36:15;8.90;81.10
21498;DHT22;10910;50.932;0.246;2024-03-08T11:38:48;8.80;82.00
21498;DHT22;10910;50.932;0.246;2024-03-08T11:41:21;8.80;82.20
21498;DHT22;10910;50.932;0.246;2024-03-08T11:43:47;8.90;82.20
21498;DHT22;10910;50.932;0.246;2024-03-08T11:46:17;8.90;80.10
21498;DHT22;10910;50.932;0.246;2024-03-08T11:48:44;8.90;79.30
21498;DHT22;10910;50.932;0.246;2024-03-08T11:51:12;8.90;78.10
21498;DHT22;10910;50.932;0.246;2024-03-08T11:53:39;8.80;79.10
21498;DHT22;10910;50.932;0.246;2024-03-08T11:56:10;8.90;78.60
21498;DHT22;10910;50.932;0.246;2024-03-08T11:58:37;9.00;79.40
21498;DHT22;10910;50.932;0.246;2024-03-08T12:01:06;9.00;77.60
21498;DHT22;10910;50.932;0.246;2024-03-08T12:03:33;9.00;77.70
21498;DHT22;10910;50.932;0.246;2024-03-08T12:06:02;9.10;77.00
21498;DHT22;10910;50.932;0.246;2024-03-08T12:08:30;9.10;78.20
21498;DHT22;10910;50.932;0.246;2024-03-08T12:10:56;9.10;78.50
21498;DHT22;10910;50.932;0.246;2024-03-08T12:13:30;9.30;79.10
21498;DHT22;10910;50.932;0.246;2024-03-08T12:16:03;9.30;77.70
21498;DHT22;10910;50.932;0.246;2024-03-08T12:18:33;9.50;76.60
21498;DHT22;10910;50.932;0.246;2024-03-08T12:21:10;9.50;76.20
21498;DHT22;10910;50.932;0.246;2024-03-08T12:23:37;9.50;76.40
21498;DHT22;10910;50.932;0.246;2024-03-08T12:28:43;9.50;77.20
21498;DHT22;10910;50.932;0.246;2024-03-08T12:31:12;9.60;75.80
21498;DHT22;10910;50.932;0.246;2024-03-08T12:33:50;9.50;76.70
21498;DHT22;10910;50.932;0.246;2024-03-08T12:36:17;9.60;76.90
21498;DHT22;10910;50.932;0.246;2024-03-08T12:38:46;9.60;77.20
21498;DHT22;10910;50.932;0.246;2024-03-08T12:41:19;9.50;76.00
21498;DHT22;10910;50.932;0.246;2024-03-08T12:43:45;9.50;77.10
21498;DHT22;10910;50.932;0.246;2024-03-08T12:46:19;9.50;77.60
21498;DHT22;10910;50.932;0.246;2024-03-08T12:48:51;9.60;78.00
21498;DHT22;10910;50.932;0.246;2024-03-08T12:51:20;9.70;77.20
21498;DHT22;10910;50.932;0.246;2024-03-08T12:53:46;9.80;76.90
21498;DHT22;10910;50.932;0.246;2024-03-08T12:56:33;9.90;76.30
21498;DHT22;10910;50.932;0.246;2024-03-08T12:59:00;10.10;77.30
21498;DHT22;10910;50.932;0.246;2024-03-08T13:01:26;10.20;76.80
21498;DHT22;10910;50.932;0.246;2024-03-08T13:03:52;10.10;76.30
21498;DHT22;10910;50.932;0.246;2024-03-08T13:06:19;10.00;76.90
21498;DHT22;10910;50.932;0.246;2024-03-08T13:08:47;10.00;76.00
21498;DHT22;10910;50.932;0.246;2024-03-08T13:11:13;9.90;76.70
21498;DHT22;10910;50.932;0.246;2024-03-08T13:13:43;9.90;76.90
21498;DHT22;10910;50.932;0.246;2024-03-08T13:16:10;9.90;77.00
21498;DHT22;10910;50.932;0.246;2024-03-08T13:18:36;10.00;77.30
21498;DHT22;10910;50.932;0.246;2024-03-08T13:21:03;10.00;77.50
21498;DHT22;10910;50.932;0.246;2024-03-08T13:23:36;10.00;76.70
21498;DHT22;10910;50.932;0.246;2024-03-08T13:26:10;10.10;77.50
21498;DHT22;10910;50.932;0.246;2024-03-08T13:31:08;10.10;76.60
21498;DHT22;10910;50.932;0.246;2024-03-08T13:33:36;10.20;75.80
21498;DHT22;10910;50.932;0.246;2024-03-08T13:36:05;10.30;76.10
21498;DHT22;10910;50.932;0.246;2024-03-08T13:38:34;10.30;75.70
21498;DHT22;10910;50.932;0.246;2024-03-08T13:41:02;10.30;76.10
21498;DHT22;10910;50.932;0.246;2024-03-08T13:43:28;10.20;76.40
21498;DHT22;10910;50.932;0.246;2024-03-08T13:45:55;10.40;75.80
21498;DHT22;10910;50.932;0.246;2024-03-08T13:48:21;10.40;76.30
21498;DHT22;10910;50.932;0.246;2024-03-08T13:50:48;10.40;75.30
21498;DHT22;10910;50.932;0.246;2024-03-08T13:53:14;10.40;77.30
21498;DHT22;10910;50.932;0.246;2024-03-08T13:55:40;10.40;77.40
21498;DHT22;10910;50.932;0.246;2024-03-08T13:58:06;10.50;76.10
21498;DHT22;10910;50.932;0.246;2024-03-08T14:00:35;10.40;76.50
21498;DHT22;10910;50.932;0.246;2024-03-08T14:03:01;10.50;76.60
21498;DHT22;10910;50.932;0.246;2024-03-08T14:05:38;10.40;76.80
21498;DHT22;10910;50.932;0.246;2024-03-08T14:08:05;10.40;76.00
21498;DHT22;10910;50.932;0.246;2024-03-08T14:10:35;10.30;77.40
21498;DHT22;10910;50.932;0.246;2024-03-08T14:13:03;10.40;76.90
21498;DHT22;10910;50.932;0.246;2024-03-08T14:15:31;10.30;76.60
21498;DHT22;10910;50.932;0.246;2024-03-08T14:17:57;10.20;76.20
21498;DHT22;10910;50.932;0.246;2024-03-08T14:20:23;10.00;75.80
21498;DHT22;10910;50.932;0.246;2024-03-08T14:22:59;9.80;77.50
21498;DHT22;10910;50.932;0.246;2024-03-08T14:25:25;9.90;78.20
21498;DHT22;10910;50.932;0.246;2024-03-08T14:27:52;10.00;78.10
21498;DHT22;10910;50.932;0.246;2024-03-08T14:30:23;10.00;78.00
21498;DHT22;10910;50.932;0.246;2024-03-08T14:33:00;9.80;77.90
21498;DHT22;10910;50.932;0.246;2024-03-08T14:35:26;9.70;78.40
21498;DHT22;10910;50.932;0.246;2024-03-08T14:37:52;9.60;78.20
21498;DHT22;10910;50.932;0.246;2024-03-08T14:40:18;9.60;79.40
21498;DHT22;10910;50.932;0.246;2024-03-08T14:42:48;9.50;79.20
21498;DHT22;10910;50.932;0.246;2024-03-08T14:45:15;9.50;80.10
21498;DHT22;10910;50.932;0.246;2024-03-08T14:47:41;9.40;79.40
21498;DHT22;10910;50.932;0.246;2024-03-08T14:50:08;9.40;80.60
21498;DHT22;10910;50.932;0.246;2024-03-08T14:52:37;9.50;81.70
21498;DHT22;10910;50.932;0.246;2024-03-08T14:55:05;9.60;81.70
21498;DHT22;10910;50.932;0.246;2024-03-08T14:57:32;9.70;82.00
21498;DHT22;10910;50.932;0.246;2024-03-08T14:59:58;9.80;81.40
21498;DHT22;10910;50.932;0.246;2024-03-08T15:02:31;9.90;80.30
21498;DHT22;10910;50.932;0.246;2024-03-08T15:04:57;9.90;80.70
21498;DHT22;10910;50.932;0.246;2024-03-08T15:07:26;9.80;80.40
21498;DHT22;10910;50.932;0.246;2024-03-08T15:09:53;9.80;81.10
21498;DHT22;10910;50.932;0.246;2024-03-08T15:12:21;9.80;80.40
21498;DHT22;10910;50.932;0.246;2024-03-08T15:14:47;9.80;81.20
21498;DHT22;10910;50.932;0.246;2024-03-08T15:17:13;9.70;80.30
21498;DHT22;10910;50.932;0.246;2024-03-08T15:19:47;9.70;80.40
21498;DHT22;10910;50.932;0.246;2024-03-08T15:22:13;9.60;81.10
21498;DHT22;10910;50.932;0.246;2024-03-08T15:24:40;9.70;81.30
21498;DHT22;10910;50.932;0.246;2024-03-08T15:27:08;9.70;81.60
21498;DHT22;10910;50.932;0.246;2024-03-08T15:29:34;9.70;82.10
21498;DHT22;10910;50.932;0.246;2024-03-08T15:32:01;9.70;80.90
21498;DHT22;10910;50.932;0.246;2024-03-08T15:34:26;9.70;81.20
21498;DHT22;10910;50.932;0.246;2024-03-08T15:36:52;9.70;81.30
21498;DHT22;10910;50.932;0.246;2024-03-08T15:39:18;9.60;81.50
21498;DHT22;10910;50.932;0.246;2024-03-08T15:41:46;9.70;81.30
21498;DHT22;10910;50.932;0.246;2024-03-08T15:44:12;9.60;80.90
21498;DHT22;10910;50.932;0.246;2024-03-08T15:46:39;9.60;80.70
21498;DHT22;10910;50.932;0.246;2024-03-08T15:49:07;9.40;81.30
21498;DHT22;10910;50.932;0.246;2024-03-08T15:51:37;9.40;81.90
21498;DHT22;10910;50.932;0.246;2024-03-08T15:54:04;9.50;82.10
21498;DHT22;10910;50.932;0.246;2024-03-08T15:56:30;9.50;80.80